createdAt,value
2018-04-27T00:00:45.444Z,1006.18
2018-04-27T00:01:59.715Z,1006.15
2018-04-27T00:03:14.300Z,1006.21
2018-04-27T00:04:28.415Z,1006.22
2018-04-27T00:05:42.992Z,1006.24
2018-04-27T00:11:55.442Z,1006.3
2018-04-27T00:13:09.421Z,1006.28
2018-04-27T00:14:24.165Z,1006.29
2018-04-27T00:15:38.862Z,1006.29
2018-04-27T00:16:53.301Z,1006.26
2018-04-27T00:18:07.525Z,1006.26
2018-04-27T00:19:21.984Z,1006.22
2018-04-27T00:20:36.964Z,1006.22
2018-04-27T00:21:50.663Z,1006.25
2018-04-27T00:23:04.715Z,1006.23
2018-04-27T00:24:18.620Z,1006.21
2018-04-27T00:25:33.171Z,1006.22
2018-04-27T00:26:47.880Z,1006.25
2018-04-27T00:28:02.635Z,1006.27
2018-04-27T00:29:16.586Z,1006.18
2018-04-27T00:30:31.057Z,1006.19
2018-04-27T00:31:45.741Z,1006.18
2018-04-27T00:33:00.450Z,1006.18
2018-04-27T00:34:14.969Z,1006.16
2018-04-27T00:35:29.928Z,1006.19
2018-04-27T00:36:44.284Z,1006.17
2018-04-27T00:37:58.721Z,1006.13
2018-04-27T00:39:13.484Z,1006.15
2018-04-27T00:40:27.174Z,1006.17
2018-04-27T00:41:42.038Z,1006.15
2018-04-27T00:42:56.689Z,1006.15
2018-04-27T00:44:11.114Z,1006.18
2018-04-27T00:45:25.304Z,1006.14
2018-04-27T00:46:39.791Z,1006.03
2018-04-27T00:47:54.561Z,1006.07
2018-04-27T00:49:09.025Z,1006.05
2018-04-27T00:50:23.668Z,1006.06
2018-04-27T00:51:37.904Z,1006.03
2018-04-27T00:52:52.901Z,1006.06
2018-04-27T00:54:07.335Z,1006.04
2018-04-27T00:55:21.786Z,1006.01
2018-04-27T00:56:36.740Z,1005.98
2018-04-27T00:57:51.545Z,1006.02
2018-04-27T00:59:06.142Z,1005.98
2018-04-27T01:00:20.918Z,1005.93
2018-04-27T01:01:35.340Z,1005.89
2018-04-27T01:02:49.593Z,1005.93
2018-04-27T01:04:04.036Z,1005.94
2018-04-27T01:05:18.007Z,1005.9
2018-04-27T01:06:32.726Z,1005.85
2018-04-27T01:07:47.175Z,1005.87
2018-04-27T01:09:01.889Z,1005.9
2018-04-27T01:10:15.798Z,1005.85
2018-04-27T01:11:30.487Z,1005.88
2018-04-27T01:12:45.427Z,1005.86
2018-04-27T01:14:00.433Z,1005.84
2018-04-27T01:15:15.115Z,1005.85
2018-04-27T01:16:29.064Z,1005.85
2018-04-27T01:17:43.576Z,1005.87
2018-04-27T01:18:57.706Z,1005.87
2018-04-27T01:20:11.888Z,1005.87
2018-04-27T01:21:25.827Z,1005.87
2018-04-27T01:22:40.017Z,1005.86
2018-04-27T01:23:54.717Z,1005.84
2018-04-27T01:25:08.686Z,1005.85
2018-04-27T01:26:23.217Z,1005.83
2018-04-27T01:27:37.430Z,1005.83
2018-04-27T01:28:51.441Z,1005.83
2018-04-27T01:30:05.957Z,1005.86
2018-04-27T01:31:19.642Z,1005.88
2018-04-27T01:32:33.855Z,1005.82
2018-04-27T01:33:47.653Z,1005.82
2018-04-27T01:35:02.395Z,1005.84
2018-04-27T01:36:16.696Z,1005.8
2018-04-27T01:37:31.179Z,1005.85
2018-04-27T01:38:45.923Z,1005.85
2018-04-27T01:40:00.547Z,1005.85
2018-04-27T01:41:14.766Z,1005.87
2018-04-27T01:42:29.485Z,1005.86
2018-04-27T01:43:43.473Z,1005.88
2018-04-27T01:44:58.251Z,1005.91
2018-04-27T01:46:12.747Z,1005.89
2018-04-27T01:47:26.929Z,1005.86
2018-04-27T01:48:41.917Z,1005.88
2018-04-27T01:49:56.071Z,1005.92
2018-04-27T01:51:10.533Z,1005.92
2018-04-27T01:52:25.014Z,1005.96
2018-04-27T01:53:40.007Z,1005.97
2018-04-27T01:54:54.635Z,1005.96
2018-04-27T01:56:09.150Z,1005.91
2018-04-27T01:57:24.274Z,1005.95
2018-04-27T01:58:39.255Z,1005.95
2018-04-27T01:59:54.060Z,1005.88
2018-04-27T02:01:08.733Z,1005.87
2018-04-27T02:02:22.643Z,1005.88
2018-04-27T02:03:37.323Z,1005.87
2018-04-27T02:04:52.232Z,1005.86
2018-04-27T02:06:06.679Z,1005.87
2018-04-27T02:07:21.359Z,1005.83
2018-04-27T02:08:35.809Z,1005.82
2018-04-27T02:09:49.436Z,1005.86
2018-04-27T02:11:03.120Z,1005.89
2018-04-27T02:12:17.838Z,1005.93
2018-04-27T02:13:32.002Z,1005.91
2018-04-27T02:14:45.926Z,1005.9
2018-04-27T02:16:00.390Z,1005.91
2018-04-27T02:17:15.054Z,1005.87
2018-04-27T02:18:28.984Z,1005.89
2018-04-27T02:19:43.391Z,1005.89
2018-04-27T02:20:57.621Z,1005.88
2018-04-27T02:22:11.984Z,1005.88
2018-04-27T02:23:26.413Z,1005.84
2018-04-27T02:24:40.857Z,1005.86
2018-04-27T02:25:55.331Z,1005.87
2018-04-27T02:27:09.081Z,1005.91
2018-04-27T02:28:23.574Z,1005.88
2018-04-27T02:29:38.004Z,1005.9
2018-04-27T02:30:52.153Z,1005.91
2018-04-27T02:32:06.194Z,1005.9
2018-04-27T02:33:20.160Z,1005.87
2018-04-27T02:34:33.595Z,1005.84
2018-04-27T02:35:48.057Z,1005.79
2018-04-27T02:37:02.263Z,1005.81
2018-04-27T02:38:17.027Z,1005.74
2018-04-27T02:39:31.490Z,1005.73
2018-04-27T02:40:45.964Z,1005.71
2018-04-27T02:42:00.628Z,1005.72
2018-04-27T02:43:14.514Z,1005.68
2018-04-27T02:44:28.761Z,1005.7
2018-04-27T02:45:42.987Z,1005.66
2018-04-27T02:46:57.636Z,1005.61
2018-04-27T02:48:12.245Z,1005.58
2018-04-27T02:49:27.062Z,1005.62
2018-04-27T02:50:41.755Z,1005.59
2018-04-27T02:51:56.245Z,1005.59
2018-04-27T02:53:10.243Z,1005.58
2018-04-27T02:54:24.674Z,1005.59
2018-04-27T02:55:39.264Z,1005.58
2018-04-27T02:56:53.476Z,1005.57
2018-04-27T02:58:07.839Z,1005.57
2018-04-27T02:59:22.570Z,1005.56
2018-04-27T03:00:37.026Z,1005.58
2018-04-27T03:01:50.998Z,1005.53
2018-04-27T03:03:05.423Z,1005.55
2018-04-27T03:04:19.814Z,1005.51
2018-04-27T03:05:34.040Z,1005.48
2018-04-27T03:06:48.732Z,1005.47
2018-04-27T03:08:03.117Z,1005.42
2018-04-27T03:09:17.311Z,1005.46
2018-04-27T03:10:31.708Z,1005.47
2018-04-27T03:11:45.908Z,1005.45
2018-04-27T03:13:00.373Z,1005.4
2018-04-27T03:14:15.430Z,1005.36
2018-04-27T03:15:29.632Z,1005.41
2018-04-27T03:16:44.129Z,1005.35
2018-04-27T03:17:58.571Z,1005.35
2018-04-27T03:19:12.975Z,1005.33
2018-04-27T03:20:27.472Z,1005.34
2018-04-27T03:21:41.658Z,1005.28
2018-04-27T03:22:55.632Z,1005.28
2018-04-27T03:24:10.089Z,1005.27
2018-04-27T03:25:24.748Z,1005.26
2018-04-27T03:26:39.135Z,1005.31
2018-04-27T03:27:53.854Z,1005.24
2018-04-27T03:29:08.480Z,1005.19
2018-04-27T03:30:22.231Z,1005.21
2018-04-27T03:31:36.724Z,1005.24
2018-04-27T03:32:51.188Z,1005.27
2018-04-27T03:34:05.433Z,1005.29
2018-04-27T03:35:20.536Z,1005.23
2018-04-27T03:36:35.010Z,1005.21
2018-04-27T03:37:49.263Z,1005.18
2018-04-27T03:39:03.224Z,1005.14
2018-04-27T03:40:16.679Z,1005.16
2018-04-27T03:41:31.411Z,1005.14
2018-04-27T03:42:45.075Z,1005.15
2018-04-27T03:43:59.277Z,1005.12
2018-04-27T03:45:13.654Z,1005.13
2018-04-27T03:46:28.224Z,1005.09
2018-04-27T03:47:42.700Z,1005.08
2018-04-27T03:48:57.130Z,1005.09
2018-04-27T03:50:11.858Z,1005.11
2018-04-27T03:51:26.875Z,1005.07
2018-04-27T03:52:41.336Z,1005.06
2018-04-27T03:53:56.065Z,1005.06
2018-04-27T03:55:10.089Z,1005.05
2018-04-27T03:56:24.279Z,1005
2018-04-27T03:57:39.275Z,1004.99
2018-04-27T03:58:53.736Z,1005.04
2018-04-27T04:00:08.455Z,1005.02
2018-04-27T04:01:22.893Z,1005.02
2018-04-27T04:02:37.680Z,1004.98
2018-04-27T04:03:52.377Z,1004.94
2018-04-27T04:05:07.344Z,1004.9
2018-04-27T04:06:21.568Z,1004.94
2018-04-27T04:07:36.266Z,1004.92
2018-04-27T04:08:51.017Z,1004.93
2018-04-27T04:10:05.353Z,1004.88
2018-04-27T04:11:20.101Z,1004.89
2018-04-27T04:12:34.058Z,1004.85
2018-04-27T04:13:48.275Z,1004.86
2018-04-27T04:15:02.715Z,1004.82
2018-04-27T04:16:16.942Z,1004.8
2018-04-27T04:17:31.705Z,1004.75
2018-04-27T04:18:46.192Z,1004.82
2018-04-27T04:20:00.618Z,1004.78
2018-04-27T04:21:14.318Z,1004.72
2018-04-27T04:22:28.532Z,1004.75
2018-04-27T04:23:43.052Z,1004.73
2018-04-27T04:24:57.659Z,1004.69
2018-04-27T04:26:12.207Z,1004.7
2018-04-27T04:27:26.152Z,1004.65
2018-04-27T04:28:40.846Z,1004.62
2018-04-27T04:29:55.430Z,1004.64
2018-04-27T04:31:09.915Z,1004.6
2018-04-27T04:32:24.100Z,1004.62
2018-04-27T04:33:39.274Z,1004.62
2018-04-27T04:34:54.054Z,1004.6
2018-04-27T04:36:08.623Z,1004.63
2018-04-27T04:37:23.340Z,1004.64
2018-04-27T04:38:38.192Z,1004.57
2018-04-27T04:39:52.895Z,1004.53
2018-04-27T04:41:07.876Z,1004.56
2018-04-27T04:42:22.398Z,1004.53
2018-04-27T04:43:36.145Z,1004.52
2018-04-27T04:44:50.805Z,1004.51
2018-04-27T04:46:05.411Z,1004.54
2018-04-27T04:47:20.744Z,1004.5
2018-04-27T04:48:35.518Z,1004.54
2018-04-27T04:49:49.261Z,1004.61
2018-04-27T04:51:03.522Z,1004.55
2018-04-27T04:52:18.105Z,1004.61
2018-04-27T04:53:32.269Z,1004.59
2018-04-27T04:54:46.524Z,1004.62
2018-04-27T04:56:01.289Z,1004.56
2018-04-27T04:57:15.531Z,1004.54
2018-04-27T04:58:30.251Z,1004.57
2018-04-27T04:59:44.717Z,1004.64
2018-04-27T05:00:59.448Z,1004.65
2018-04-27T05:02:14.417Z,1004.67
2018-04-27T05:03:29.239Z,1004.63
2018-04-27T05:04:42.971Z,1004.58
2018-04-27T05:05:57.729Z,1004.58
2018-04-27T05:07:11.964Z,1004.6
2018-04-27T05:08:26.755Z,1004.58
2018-04-27T05:09:40.979Z,1004.6
2018-04-27T05:10:55.597Z,1004.62
2018-04-27T05:12:09.607Z,1004.58
2018-04-27T05:13:24.342Z,1004.53
2018-04-27T05:14:39.533Z,1004.55
2018-04-27T05:15:53.504Z,1004.58
2018-04-27T05:17:14.616Z,1004.58
2018-04-27T05:18:28.842Z,1004.56
2018-04-27T05:19:43.076Z,1004.53
2018-04-27T05:20:57.742Z,1004.53
2018-04-27T05:22:12.188Z,1004.57
2018-04-27T05:23:26.796Z,1004.56
2018-04-27T05:24:41.281Z,1004.57
2018-04-27T05:25:55.478Z,1004.57
2018-04-27T05:27:09.690Z,1004.56
2018-04-27T05:28:24.728Z,1004.54
2018-04-27T05:29:38.962Z,1004.56
2018-04-27T05:30:54.360Z,1004.57
2018-04-27T05:32:08.573Z,1004.52
2018-04-27T05:33:22.379Z,1004.52
2018-04-27T05:34:36.855Z,1004.52
2018-04-27T05:35:51.423Z,1004.53
2018-04-27T05:37:05.614Z,1004.55
2018-04-27T05:38:20.087Z,1004.59
2018-04-27T05:39:34.540Z,1004.56
2018-04-27T05:40:48.289Z,1004.55
2018-04-27T05:42:02.582Z,1004.53
2018-04-27T05:43:17.347Z,1004.52
2018-04-27T05:44:31.581Z,1004.51
2018-04-27T05:45:46.296Z,1004.49
2018-04-27T05:47:01.013Z,1004.5
2018-04-27T05:48:15.546Z,1004.49
2018-04-27T05:49:29.715Z,1004.52
2018-04-27T05:50:44.924Z,1004.48
2018-04-27T05:51:59.399Z,1004.51
2018-04-27T05:53:13.382Z,1004.47
2018-04-27T05:54:27.957Z,1004.45
2018-04-27T05:55:42.271Z,1004.47
2018-04-27T05:56:56.745Z,1004.47
2018-04-27T05:58:11.271Z,1004.45
2018-04-27T05:59:25.961Z,1004.42
2018-04-27T06:00:40.019Z,1004.37
2018-04-27T06:01:54.737Z,1004.36
2018-04-27T06:03:08.713Z,1004.37
2018-04-27T06:04:22.666Z,1004.32
2018-04-27T06:05:37.773Z,1004.39
2018-04-27T06:06:52.019Z,1004.33
2018-04-27T06:08:06.961Z,1004.36
2018-04-27T06:09:21.656Z,1004.32
2018-04-27T06:10:36.068Z,1004.35
2018-04-27T06:11:50.829Z,1004.29
2018-04-27T06:13:05.021Z,1004.32
2018-04-27T06:14:19.650Z,1004.3
2018-04-27T06:15:34.166Z,1004.33
2018-04-27T06:16:48.633Z,1004.37
2018-04-27T06:18:03.363Z,1004.36
2018-04-27T06:19:17.953Z,1004.4
2018-04-27T06:20:33.080Z,1004.39
2018-04-27T06:21:47.262Z,1004.39
2018-04-27T06:23:01.252Z,1004.39
2018-04-27T06:24:16.040Z,1004.38
2018-04-27T06:25:30.778Z,1004.34
2018-04-27T06:26:45.934Z,1004.31
2018-04-27T06:28:00.660Z,1004.29
2018-04-27T06:29:15.089Z,1004.27
2018-04-27T06:30:29.760Z,1004.3
2018-04-27T06:31:43.983Z,1004.25
2018-04-27T06:32:58.195Z,1004.26
2018-04-27T06:34:12.170Z,1004.23
2018-04-27T06:35:26.675Z,1004.14
2018-04-27T06:36:41.378Z,1004.1
2018-04-27T06:37:55.865Z,1004.11
2018-04-27T06:39:10.343Z,1004.05
2018-04-27T06:40:24.851Z,1004.07
2018-04-27T06:41:39.554Z,1004.04
2018-04-27T06:42:53.884Z,1004.02
2018-04-27T06:44:08.547Z,1003.98
2018-04-27T06:45:23.120Z,1004.01
2018-04-27T06:46:38.018Z,1003.97
2018-04-27T06:47:52.526Z,1003.96
2018-04-27T06:49:07.420Z,1003.93
2018-04-27T06:50:21.913Z,1003.89
2018-04-27T06:51:36.323Z,1003.84
2018-04-27T06:52:51.449Z,1003.93
2018-04-27T06:54:06.186Z,1003.92
2018-04-27T06:55:20.945Z,1003.9
2018-04-27T06:56:35.534Z,1003.89
2018-04-27T06:57:50.038Z,1003.85
2018-04-27T06:59:04.503Z,1003.87
2018-04-27T07:00:18.917Z,1003.83
2018-04-27T07:01:33.327Z,1003.82
2018-04-27T07:02:47.591Z,1003.86
2018-04-27T07:04:01.809Z,1003.8
2018-04-27T07:05:16.388Z,1003.77
2018-04-27T07:06:30.680Z,1003.8
2018-04-27T07:07:45.509Z,1003.8
2018-04-27T07:08:59.417Z,1003.79
2018-04-27T07:10:20.417Z,1003.78
2018-04-27T07:11:34.905Z,1003.72
2018-04-27T07:12:49.667Z,1003.73
2018-04-27T07:14:04.455Z,1003.71
2018-04-27T07:15:18.649Z,1003.68
2018-04-27T07:16:33.623Z,1003.68
2018-04-27T07:17:48.582Z,1003.69
2018-04-27T07:19:03.592Z,1003.65
2018-04-27T07:20:17.589Z,1003.63
2018-04-27T07:21:32.329Z,1003.66
2018-04-27T07:22:46.546Z,1003.6
2018-04-27T07:24:00.984Z,1003.68
2018-04-27T07:25:15.161Z,1003.63
2018-04-27T07:26:29.799Z,1003.63
2018-04-27T07:27:44.707Z,1003.64
2018-04-27T07:28:59.211Z,1003.61
2018-04-27T07:30:13.229Z,1003.6
2018-04-27T07:31:27.709Z,1003.54
2018-04-27T07:32:42.153Z,1003.61
2018-04-27T07:33:56.633Z,1003.5
2018-04-27T07:35:11.025Z,1003.5
2018-04-27T07:36:25.812Z,1003.56
2018-04-27T07:37:40.774Z,1003.56
2018-04-27T07:38:54.789Z,1003.58
2018-04-27T07:40:09.549Z,1003.51
2018-04-27T07:41:24.582Z,1003.49
2018-04-27T07:42:39.196Z,1003.48
2018-04-27T07:43:53.681Z,1003.49
2018-04-27T07:45:08.772Z,1003.44
2018-04-27T07:46:23.279Z,1003.42
2018-04-27T07:47:38.546Z,1003.42
2018-04-27T07:48:53.040Z,1003.43
2018-04-27T07:50:07.041Z,1003.44
2018-04-27T07:51:20.985Z,1003.47
2018-04-27T07:52:35.910Z,1003.41
2018-04-27T07:53:50.898Z,1003.33
2018-04-27T07:55:05.459Z,1003.27
2018-04-27T07:56:19.723Z,1003.3
2018-04-27T07:57:33.958Z,1003.31
2018-04-27T07:58:48.435Z,1003.32
2018-04-27T08:00:02.422Z,1003.35
2018-04-27T08:01:16.421Z,1003.33
2018-04-27T08:02:31.019Z,1003.34
2018-04-27T08:03:45.494Z,1003.34
2018-04-27T08:05:00.226Z,1003.28
2018-04-27T08:06:14.456Z,1003.22
2018-04-27T08:07:29.160Z,1003.27
2018-04-27T08:08:43.772Z,1003.26
2018-04-27T08:09:58.769Z,1003.23
2018-04-27T08:11:13.269Z,1003.22
2018-04-27T08:12:27.730Z,1003.17
2018-04-27T08:13:42.118Z,1003.2
2018-04-27T08:14:56.799Z,1003.21
2018-04-27T08:16:11.025Z,1003.16
2018-04-27T08:17:24.713Z,1003.19
2018-04-27T08:18:39.394Z,1003.15
2018-04-27T08:19:53.612Z,1003.17
2018-04-27T08:21:08.371Z,1003.09
2018-04-27T08:22:23.347Z,1003.07
2018-04-27T08:23:37.843Z,1003.04
2018-04-27T08:24:52.281Z,1003.04
2018-04-27T08:26:06.770Z,1003.02
2018-04-27T08:27:20.980Z,1002.99
2018-04-27T08:28:34.989Z,1002.98
2018-04-27T08:29:49.234Z,1002.98
2018-04-27T08:31:03.806Z,1002.99
2018-04-27T08:32:18.044Z,1003.02
2018-04-27T08:33:32.513Z,1002.94
2018-04-27T08:34:46.795Z,1002.94
2018-04-27T08:36:01.314Z,1002.92
2018-04-27T08:37:16.241Z,1002.94
2018-04-27T08:38:30.484Z,1002.91
2018-04-27T08:39:44.949Z,1002.87
2018-04-27T08:40:59.508Z,1002.88
2018-04-27T08:42:14.015Z,1002.86
2018-04-27T08:43:28.573Z,1002.77
2018-04-27T08:44:42.869Z,1002.76
2018-04-27T08:45:57.103Z,1002.75
2018-04-27T08:47:11.826Z,1002.73
2018-04-27T08:48:26.567Z,1002.73
2018-04-27T08:49:41.173Z,1002.7
2018-04-27T08:50:55.468Z,1002.71
2018-04-27T08:52:10.211Z,1002.66
2018-04-27T08:53:24.714Z,1002.71
2018-04-27T08:54:38.991Z,1002.68
2018-04-27T08:55:53.549Z,1002.62
2018-04-27T08:57:07.270Z,1002.61
2018-04-27T08:58:21.773Z,1002.59
2018-04-27T08:59:36.046Z,1002.55
2018-04-27T09:00:50.321Z,1002.49
2018-04-27T09:02:04.554Z,1002.51
2018-04-27T09:03:19.037Z,1002.47
2018-04-27T09:04:33.180Z,1002.46
2018-04-27T09:05:47.415Z,1002.42
2018-04-27T09:07:02.161Z,1002.4
2018-04-27T09:08:17.097Z,1002.42
2018-04-27T09:09:31.760Z,1002.38
2018-04-27T09:10:45.766Z,1002.38
2018-04-27T09:12:00.187Z,1002.39
2018-04-27T09:13:14.645Z,1002.34
2018-04-27T09:14:29.435Z,1002.3
2018-04-27T09:15:44.491Z,1002.29
2018-04-27T09:16:59.285Z,1002.27
2018-04-27T09:18:13.025Z,1002.26
2018-04-27T09:19:27.933Z,1002.19
2018-04-27T09:20:42.191Z,1002.17
2018-04-27T09:21:56.704Z,1002.13
2018-04-27T09:23:11.452Z,1002.18
2018-04-27T09:24:25.429Z,1002.14
2018-04-27T09:25:39.922Z,1002.18
2018-04-27T09:26:53.945Z,1002.14
2018-04-27T09:28:08.600Z,1002.16
2018-04-27T09:29:23.641Z,1002.1
2018-04-27T09:30:38.710Z,1002.12
2018-04-27T09:31:53.261Z,1002.04
2018-04-27T09:33:07.963Z,1002.11
2018-04-27T09:34:22.531Z,1002.09
2018-04-27T09:35:37.294Z,1002.02
2018-04-27T09:36:52.163Z,1001.95
2018-04-27T09:38:06.942Z,1001.97
2018-04-27T09:39:20.908Z,1002
2018-04-27T09:40:35.013Z,1001.94
2018-04-27T09:41:49.266Z,1001.9
2018-04-27T09:43:04.026Z,1001.96
2018-04-27T09:44:18.266Z,1001.96
2018-04-27T09:45:32.782Z,1001.92
2018-04-27T09:46:47.556Z,1001.9
2018-04-27T09:48:01.752Z,1001.91
2018-04-27T09:49:16.743Z,1001.87
2018-04-27T09:50:31.788Z,1001.8
2018-04-27T09:51:46.449Z,1001.76
2018-04-27T09:53:00.314Z,1001.75
2018-04-27T09:54:15.042Z,1001.75
2018-04-27T09:55:29.553Z,1001.76
2018-04-27T09:56:44.261Z,1001.68
2018-04-27T09:57:58.498Z,1001.7
2018-04-27T09:59:13.106Z,1001.75
2018-04-27T10:00:26.560Z,1001.71
2018-04-27T10:01:40.841Z,1001.67
2018-04-27T10:02:55.599Z,1001.61
2018-04-27T10:04:10.335Z,1001.56
2018-04-27T10:05:25.307Z,1001.55
2018-04-27T10:06:39.626Z,1001.51
2018-04-27T10:07:54.697Z,1001.49
2018-04-27T10:09:09.282Z,1001.44
2018-04-27T10:10:23.528Z,1001.49
2018-04-27T10:11:38.274Z,1001.42
2018-04-27T10:12:53.057Z,1001.42
2018-04-27T10:14:08.063Z,1001.37
2018-04-27T10:15:22.069Z,1001.37
2018-04-27T10:16:36.558Z,1001.38
2018-04-27T10:17:51.037Z,1001.34
2018-04-27T10:19:12.368Z,1001.29
2018-04-27T10:20:27.170Z,1001.26
2018-04-27T10:21:41.816Z,1001.27
2018-04-27T10:22:57.114Z,1001.25
2018-04-27T10:24:11.090Z,1001.16
2018-04-27T10:25:25.089Z,1001.11
2018-04-27T10:26:39.553Z,1001.07
2018-04-27T10:27:54.678Z,1001.02
2018-04-27T10:29:08.662Z,1001.05
2018-04-27T10:30:23.154Z,1001.04
2018-04-27T10:31:36.664Z,1000.98
2018-04-27T10:32:50.930Z,1000.98
2018-04-27T10:34:05.576Z,1000.91
2018-04-27T10:35:19.801Z,1000.88
2018-04-27T10:36:34.605Z,1000.87
2018-04-27T10:37:49.260Z,1000.87
2018-04-27T10:39:03.776Z,1000.85
2018-04-27T10:40:18.224Z,1000.84
2018-04-27T10:41:32.204Z,1000.84
2018-04-27T10:42:46.553Z,1000.78
2018-04-27T10:44:04.576Z,1000.79
2018-04-27T10:45:18.553Z,1000.82
2018-04-27T10:46:33.061Z,1000.7
2018-04-27T10:47:47.450Z,1000.7
2018-04-27T10:49:01.932Z,1000.7
2018-04-27T10:50:16.201Z,1000.64
2018-04-27T10:51:30.868Z,1000.67
2018-04-27T10:52:45.139Z,1000.66
2018-04-27T10:53:59.659Z,1000.62
2018-04-27T10:55:14.429Z,1000.56
2018-04-27T10:56:28.694Z,1000.57
2018-04-27T10:57:43.022Z,1000.59
2018-04-27T10:58:57.633Z,1000.49
2018-04-27T11:00:12.367Z,1000.52
2018-04-27T11:01:26.569Z,1000.54
2018-04-27T11:02:40.850Z,1000.48
2018-04-27T11:03:54.622Z,1000.49
2018-04-27T11:05:09.373Z,1000.49
2018-04-27T11:06:23.086Z,1000.5
2018-04-27T11:07:37.356Z,1000.52
2018-04-27T11:08:52.310Z,1000.51
2018-04-27T11:10:06.550Z,1000.49
2018-04-27T11:11:21.156Z,1000.46
2018-04-27T11:12:35.671Z,1000.46
2018-04-27T11:13:50.921Z,1000.45
2018-04-27T11:15:04.699Z,1000.4
2018-04-27T11:16:19.184Z,1000.36
2018-04-27T11:17:33.896Z,1000.3
2018-04-27T11:18:48.813Z,1000.2
2018-04-27T11:20:03.093Z,1000.16
2018-04-27T11:21:17.999Z,1000.09
2018-04-27T11:22:32.913Z,1000.07
2018-04-27T11:23:47.462Z,1000.1
2018-04-27T11:25:01.671Z,1000.13
2018-04-27T11:26:16.181Z,1000.08
2018-04-27T11:27:30.945Z,1000.09
2018-04-27T11:28:45.765Z,1000.12
2018-04-27T11:30:00.446Z,1000.12
2018-04-27T11:31:14.470Z,1000.17
2018-04-27T11:32:28.928Z,1000.14
2018-04-27T11:33:43.476Z,1000.07
2018-04-27T11:34:58.617Z,999.95
2018-04-27T11:36:13.474Z,1000.13
2018-04-27T11:37:27.999Z,1000.07
2018-04-27T11:38:42.546Z,1000.05
2018-04-27T11:39:56.599Z,999.97
2018-04-27T11:41:10.691Z,999.95
2018-04-27T11:42:25.125Z,999.94
2018-04-27T11:43:39.881Z,999.88
2018-04-27T11:44:54.881Z,999.93
2018-04-27T11:46:09.574Z,999.89
2018-04-27T11:47:24.032Z,999.87
2018-04-27T11:48:38.282Z,999.85
2018-04-27T11:49:52.498Z,999.8
2018-04-27T11:51:06.229Z,999.75
2018-04-27T11:52:20.237Z,999.74
2018-04-27T11:53:35.204Z,999.63
2018-04-27T11:54:49.773Z,999.6
2018-04-27T11:56:03.775Z,999.58
2018-04-27T11:57:18.037Z,999.51
2018-04-27T11:58:31.531Z,999.5
2018-04-27T11:59:46.573Z,999.49
2018-04-27T12:01:01.126Z,999.37
2018-04-27T12:02:15.588Z,999.37
2018-04-27T12:03:30.339Z,999.3
2018-04-27T12:04:44.433Z,999.38
2018-04-27T12:05:59.133Z,999.46
2018-04-27T12:07:13.905Z,999.45
2018-04-27T12:08:28.654Z,999.52
2018-04-27T12:09:42.870Z,999.54
2018-04-27T12:10:57.189Z,999.48
2018-04-27T12:12:12.250Z,999.43
2018-04-27T12:13:26.255Z,999.44
2018-04-27T12:14:46.783Z,999.47
2018-04-27T12:16:01.567Z,999.48
2018-04-27T12:17:16.048Z,999.42
2018-04-27T12:18:30.305Z,999.39
2018-04-27T12:19:45.339Z,999.34
2018-04-27T12:20:59.410Z,999.28
2018-04-27T12:22:14.382Z,999.37
2018-04-27T12:23:34.759Z,999.39
2018-04-27T12:24:49.969Z,999.46
2018-04-27T12:26:04.361Z,999.46
2018-04-27T12:27:18.849Z,999.44
2018-04-27T12:28:32.837Z,999.48
2018-04-27T12:29:47.383Z,999.43
2018-04-27T12:31:02.289Z,999.34
2018-04-27T12:32:17.461Z,999.29
2018-04-27T12:33:31.670Z,999.28
2018-04-27T12:34:45.934Z,999.27
2018-04-27T12:36:00.408Z,999.21
2018-04-27T12:37:14.772Z,999.22
2018-04-27T12:38:30.145Z,999.22
2018-04-27T12:39:45.205Z,999.16
2018-04-27T12:40:59.981Z,999.12
2018-04-27T12:42:14.310Z,999.15
2018-04-27T12:43:28.820Z,999.11
2018-04-27T12:44:43.064Z,999.07
2018-04-27T12:45:57.992Z,999.11
2018-04-27T12:47:12.520Z,999.13
2018-04-27T12:48:27.268Z,999.09
2018-04-27T12:49:41.772Z,999.15
2018-04-27T12:50:56.445Z,999.15
2018-04-27T12:52:11.266Z,999.23
2018-04-27T12:53:25.926Z,999.08
2018-04-27T12:54:41.010Z,999.04
2018-04-27T12:55:55.535Z,998.97
2018-04-27T12:57:09.818Z,998.95
2018-04-27T12:58:24.382Z,998.88
2018-04-27T12:59:39.129Z,998.89
2018-04-27T13:00:53.667Z,998.9
2018-04-27T13:02:08.589Z,998.83
2018-04-27T13:03:23.370Z,998.79
2018-04-27T13:04:37.674Z,998.79
2018-04-27T13:05:51.696Z,998.76
2018-04-27T13:07:07.287Z,998.68
2018-04-27T13:08:23.293Z,998.61
2018-04-27T13:09:38.117Z,998.65
2018-04-27T13:10:53.162Z,998.62
2018-04-27T13:12:08.065Z,998.7
2018-04-27T13:13:22.388Z,998.58
2018-04-27T13:14:38.237Z,998.53
2018-04-27T13:15:53.215Z,998.54
2018-04-27T13:17:07.738Z,998.54
2018-04-27T13:18:22.029Z,998.57
2018-04-27T13:19:36.316Z,998.48
2018-04-27T13:20:51.408Z,998.48
2018-04-27T13:22:06.317Z,998.37
2018-04-27T13:23:21.217Z,998.37
2018-04-27T13:24:35.747Z,998.35
2018-04-27T13:25:51.245Z,998.29
2018-04-27T13:27:25.597Z,998.21
2018-04-27T13:28:44.150Z,998.11
2018-04-27T13:29:58.804Z,998.08
2018-04-27T13:31:20.304Z,998.03
2018-04-27T13:32:35.775Z,997.94
2018-04-27T13:33:50.558Z,997.9
2018-04-27T13:35:05.839Z,997.97
2018-04-27T13:36:20.665Z,997.91
2018-04-27T13:37:35.225Z,997.91
2018-04-27T13:38:49.747Z,997.97
2018-04-27T13:40:04.310Z,998.01
2018-04-27T13:41:19.328Z,997.93
2018-04-27T13:42:33.830Z,997.92
2018-04-27T13:43:47.899Z,997.86
2018-04-27T13:45:02.994Z,997.83
2018-04-27T13:46:17.084Z,997.8
2018-04-27T13:47:32.721Z,997.75
2018-04-27T13:48:47.802Z,997.71
2018-04-27T13:50:02.621Z,997.71
2018-04-27T13:51:16.857Z,997.63
2018-04-27T13:52:32.254Z,997.56
2018-04-27T13:53:46.491Z,997.49
2018-04-27T13:55:01.267Z,997.46
2018-04-27T13:56:16.154Z,997.5
2018-04-27T13:57:31.133Z,997.45
2018-04-27T13:58:45.173Z,997.44
2018-04-27T13:59:59.676Z,997.42
2018-04-27T14:01:14.309Z,997.5
2018-04-27T14:02:28.687Z,997.48
2018-04-27T14:03:43.637Z,997.46
2018-04-27T14:04:58.128Z,997.52
2018-04-27T14:06:13.368Z,997.58
2018-04-27T14:07:28.593Z,997.5
2018-04-27T14:08:42.874Z,997.52
2018-04-27T14:09:56.950Z,997.51
2018-04-27T14:11:11.734Z,997.52
2018-04-27T14:12:28.150Z,997.47
2018-04-27T14:13:42.137Z,997.42
2018-04-27T14:14:56.947Z,997.34
2018-04-27T14:16:11.234Z,997.35
2018-04-27T14:17:25.368Z,997.28
2018-04-27T14:18:40.395Z,997.23
2018-04-27T14:19:56.375Z,997.2
2018-04-27T14:21:11.348Z,997.15
2018-04-27T14:22:26.225Z,997.14
2018-04-27T14:23:40.460Z,997.07
2018-04-27T14:24:54.971Z,997.15
2018-04-27T14:26:09.786Z,997.14
2018-04-27T14:27:24.872Z,997.18
2018-04-27T14:28:38.979Z,997.18
2018-04-27T14:29:53.515Z,997.2
2018-04-27T14:31:08.187Z,997.11
2018-04-27T14:32:23.339Z,997.13
2018-04-27T14:33:37.789Z,997.07
2018-04-27T14:34:52.423Z,997.03
2018-04-27T14:36:07.207Z,997.05
2018-04-27T14:37:21.664Z,997.02
2018-04-27T14:38:36.571Z,996.94
2018-04-27T14:39:51.317Z,996.94
2018-04-27T14:41:06.123Z,996.9
2018-04-27T14:42:20.948Z,996.89
2018-04-27T14:43:36.045Z,996.86
2018-04-27T14:44:50.420Z,996.89
2018-04-27T14:46:05.078Z,996.84
2018-04-27T14:47:19.819Z,996.82
2018-04-27T14:48:34.718Z,996.79
2018-04-27T14:49:49.036Z,996.71
2018-04-27T14:51:04.161Z,996.75
2018-04-27T14:52:18.346Z,996.66
2018-04-27T14:53:32.286Z,996.68
2018-04-27T14:54:46.541Z,996.66
2018-04-27T14:56:01.172Z,996.59
2018-04-27T14:57:15.788Z,996.55
2018-04-27T14:58:30.844Z,996.57
2018-04-27T14:59:46.115Z,996.57
2018-04-27T15:01:00.698Z,996.55
2018-04-27T15:02:14.815Z,996.6
2018-04-27T15:03:35.757Z,996.62
2018-04-27T15:04:50.992Z,996.6
2018-04-27T15:06:05.580Z,996.57
2018-04-27T15:07:20.287Z,996.49
2018-04-27T15:08:35.908Z,996.57
2018-04-27T15:09:50.720Z,996.57
2018-04-27T15:11:05.569Z,996.69
2018-04-27T15:12:19.905Z,996.69
2018-04-27T15:13:33.385Z,996.6
2018-04-27T15:14:48.484Z,996.68
2018-04-27T15:16:03.073Z,996.63
2018-04-27T15:17:17.818Z,996.62